createdAt,value
2018-10-09T00:02:15.068Z,7.20
2018-10-09T00:04:44.722Z,7.20
2018-10-09T00:07:14.345Z,7.30
2018-10-09T00:09:43.970Z,7.30
2018-10-09T00:12:13.606Z,7.30
2018-10-09T00:14:43.226Z,7.30
2018-10-09T00:17:12.841Z,7.30
2018-10-09T00:19:42.477Z,7.30
2018-10-09T00:22:12.109Z,7.20
2018-10-09T00:24:41.747Z,7.20
2018-10-09T00:27:11.386Z,7.20
2018-10-09T00:29:41.034Z,7.20
2018-10-09T00:32:10.674Z,7.20
2018-10-09T00:34:40.364Z,7.10
2018-10-09T00:37:10.009Z,7.10
2018-10-09T00:39:39.646Z,7.00
2018-10-09T00:42:09.307Z,7.00
2018-10-09T00:44:38.966Z,6.90
2018-10-09T00:47:08.661Z,6.90
2018-10-09T00:49:38.335Z,6.80
2018-10-09T00:52:08.372Z,6.80
2018-10-09T00:54:38.011Z,6.80
2018-10-09T00:57:07.849Z,6.70
2018-10-09T00:59:37.522Z,6.70
2018-10-09T01:02:07.193Z,6.70
2018-10-09T01:04:36.860Z,6.70
2018-10-09T01:07:06.610Z,6.70
2018-10-09T01:09:36.229Z,6.70
2018-10-09T01:12:05.926Z,6.70
2018-10-09T01:14:35.592Z,6.60
2018-10-09T01:17:05.243Z,6.60
2018-10-09T01:19:34.886Z,6.60
2018-10-09T01:22:04.527Z,6.60
2018-10-09T01:24:34.155Z,6.50
2018-10-09T01:27:03.813Z,6.50
2018-10-09T01:29:33.576Z,6.50
2018-10-09T01:32:03.243Z,6.50
2018-10-09T01:34:32.982Z,6.50
2018-10-09T01:37:02.621Z,6.50
2018-10-09T01:39:32.272Z,6.40
2018-10-09T01:42:01.931Z,6.40
2018-10-09T01:44:31.602Z,6.40
2018-10-09T01:47:01.242Z,6.40
2018-10-09T01:49:30.900Z,6.40
2018-10-09T01:52:00.552Z,6.30
2018-10-09T01:54:30.266Z,6.30
2018-10-09T01:56:59.885Z,6.30
2018-10-09T01:59:29.530Z,6.30
2018-10-09T02:01:59.165Z,6.30
2018-10-09T02:04:28.843Z,6.30
2018-10-09T02:06:58.479Z,6.30
2018-10-09T02:09:28.290Z,6.20
2018-10-09T02:11:57.962Z,6.20
2018-10-09T02:14:27.587Z,6.20
2018-10-09T02:16:57.286Z,6.20
2018-10-09T02:19:26.954Z,6.20
2018-10-09T02:21:56.607Z,6.10
2018-10-09T02:24:26.267Z,6.10
2018-10-09T02:26:55.898Z,6.10
2018-10-09T02:29:25.550Z,6.10
2018-10-09T02:31:55.195Z,6.00
2018-10-09T02:34:24.829Z,6.00
2018-10-09T02:36:54.550Z,6.00
2018-10-09T02:39:24.185Z,5.90
2018-10-09T02:41:53.826Z,5.90
2018-10-09T02:44:23.495Z,5.90
2018-10-09T02:46:53.114Z,5.80
2018-10-09T02:49:22.721Z,5.70
2018-10-09T02:51:52.351Z,5.70
2018-10-09T02:54:21.969Z,5.60
2018-10-09T02:56:51.589Z,5.60
2018-10-09T02:59:21.206Z,5.50
2018-10-09T03:01:50.826Z,5.50
2018-10-09T03:04:20.474Z,5.50
2018-10-09T03:06:50.106Z,5.40
2018-10-09T03:09:19.794Z,5.40
2018-10-09T03:11:49.429Z,5.30
2018-10-09T03:14:19.142Z,5.30
2018-10-09T03:16:48.943Z,5.30
2018-10-09T03:19:18.598Z,5.20
2018-10-09T03:21:48.276Z,5.20
2018-10-09T03:24:17.926Z,5.20
2018-10-09T03:26:47.582Z,5.10
2018-10-09T03:29:17.258Z,5.10
2018-10-09T03:31:46.882Z,5.10
2018-10-09T03:34:16.504Z,5.00
2018-10-09T03:36:46.126Z,5.00
2018-10-09T03:39:15.775Z,5.00
2018-10-09T03:41:45.418Z,5.00
2018-10-09T03:44:15.039Z,5.00
2018-10-09T03:46:44.705Z,4.90
2018-10-09T03:49:14.331Z,4.90
2018-10-09T03:51:43.958Z,4.90
2018-10-09T03:54:13.588Z,4.90
2018-10-09T03:56:43.236Z,4.90
2018-10-09T03:59:12.890Z,4.90
2018-10-09T04:01:42.530Z,4.80
2018-10-09T04:04:12.154Z,4.80
2018-10-09T04:06:41.790Z,4.80
2018-10-09T04:09:13.389Z,4.70
2018-10-09T04:11:43.666Z,4.70
2018-10-09T04:14:13.366Z,4.60
2018-10-09T04:16:42.978Z,4.70
2018-10-09T04:19:12.641Z,4.60
2018-10-09T04:21:42.317Z,4.60
2018-10-09T04:24:11.941Z,4.60
2018-10-09T04:26:41.569Z,4.60
2018-10-09T04:29:11.280Z,4.60
2018-10-09T04:31:40.922Z,4.50
2018-10-09T04:34:10.547Z,4.50
2018-10-09T04:36:40.176Z,4.50
2018-10-09T04:39:10.413Z,4.50
2018-10-09T04:41:40.033Z,4.50
2018-10-09T04:44:09.642Z,4.50
2018-10-09T04:46:39.300Z,4.40
2018-10-09T04:49:08.946Z,4.40
2018-10-09T04:51:38.562Z,4.40
2018-10-09T04:54:08.230Z,4.40
2018-10-09T04:56:37.830Z,4.50
2018-10-09T04:59:07.457Z,4.40
2018-10-09T05:01:37.098Z,4.40
2018-10-09T05:04:06.794Z,4.40
2018-10-09T05:06:36.547Z,4.40
2018-10-09T05:09:09.683Z,4.50
2018-10-09T05:11:39.326Z,4.40
2018-10-09T05:14:08.951Z,4.40
2018-10-09T05:16:38.570Z,4.40
2018-10-09T05:19:08.191Z,4.50
2018-10-09T05:21:37.822Z,4.50
2018-10-09T05:24:07.540Z,4.50
2018-10-09T05:26:37.169Z,4.50
2018-10-09T05:29:06.854Z,4.50
2018-10-09T05:31:36.558Z,4.60
2018-10-09T05:34:06.149Z,4.60
2018-10-09T05:36:35.758Z,4.70
2018-10-09T05:39:07.081Z,4.70
2018-10-09T05:41:37.073Z,4.70
2018-10-09T05:44:06.893Z,4.80
2018-10-09T05:46:36.519Z,4.80
2018-10-09T05:49:06.148Z,4.90
2018-10-09T05:51:35.778Z,5.00
2018-10-09T05:54:05.430Z,5.10
2018-10-09T05:56:35.066Z,5.10
2018-10-09T05:59:04.718Z,5.10
2018-10-09T06:01:34.370Z,5.20
2018-10-09T06:04:03.993Z,5.20
2018-10-09T06:06:33.673Z,5.30
2018-10-09T06:09:03.599Z,5.40
2018-10-09T06:11:33.243Z,5.50
2018-10-09T06:14:02.861Z,5.60
2018-10-09T06:16:32.507Z,5.70
2018-10-09T06:19:02.114Z,5.80
2018-10-09T06:21:31.722Z,5.80
2018-10-09T06:24:01.358Z,6.00
2018-10-09T06:26:30.994Z,6.00
2018-10-09T06:29:00.650Z,6.10
2018-10-09T06:31:30.296Z,6.20
2018-10-09T06:34:00.009Z,6.30
2018-10-09T06:36:29.642Z,6.40
2018-10-09T06:38:59.268Z,6.50
2018-10-09T06:41:28.902Z,6.70
2018-10-09T06:43:58.513Z,6.80
2018-10-09T06:46:28.144Z,6.90
2018-10-09T06:48:57.772Z,7.00
2018-10-09T06:51:27.399Z,7.10
2018-10-09T06:53:57.142Z,7.30
2018-10-09T06:56:26.710Z,7.40
2018-10-09T06:58:56.438Z,7.60
2018-10-09T07:01:26.077Z,7.60
2018-10-09T07:03:55.712Z,7.70
2018-10-09T07:06:25.368Z,7.90
2018-10-09T07:08:54.972Z,8.00
2018-10-09T07:11:24.699Z,8.00
2018-10-09T07:13:54.296Z,8.00
2018-10-09T07:16:23.918Z,8.10
2018-10-09T07:18:53.593Z,8.20
2018-10-09T07:21:23.212Z,8.30
2018-10-09T07:23:52.922Z,8.40
2018-10-09T07:26:22.571Z,8.50
2018-10-09T07:28:52.246Z,8.60
2018-10-09T07:31:21.881Z,8.70
2018-10-09T07:33:51.554Z,8.90
2018-10-09T07:36:21.161Z,9.00
2018-10-09T07:38:50.787Z,9.20
2018-10-09T07:41:20.419Z,9.40
2018-10-09T07:43:50.038Z,9.50
2018-10-09T07:46:19.694Z,9.60
2018-10-09T07:48:49.434Z,9.70
2018-10-09T07:51:19.115Z,9.80
2018-10-09T07:53:48.771Z,10.00
2018-10-09T07:56:18.408Z,10.10
2018-10-09T07:58:48.117Z,10.30
2018-10-09T08:01:17.727Z,10.40
2018-10-09T08:03:47.389Z,10.60
2018-10-09T08:06:17.026Z,10.70
2018-10-09T08:08:46.671Z,10.90
2018-10-09T08:11:16.316Z,11.00
2018-10-09T08:13:45.947Z,11.20
2018-10-09T08:16:15.600Z,11.40
2018-10-09T08:18:45.269Z,11.50
2018-10-09T08:21:14.900Z,11.70
2018-10-09T08:23:44.518Z,11.90
2018-10-09T08:26:14.119Z,12.00
2018-10-09T08:28:43.741Z,12.20
2018-10-09T08:31:13.385Z,12.40
2018-10-09T08:33:43.079Z,12.60
2018-10-09T08:36:12.762Z,12.80
2018-10-09T08:38:42.380Z,12.90
2018-10-09T08:41:12.045Z,13.00
2018-10-09T08:43:41.641Z,13.20
2018-10-09T08:46:11.285Z,13.30
2018-10-09T08:48:41.664Z,13.40
2018-10-09T08:51:11.288Z,13.50
2018-10-09T08:53:40.918Z,13.60
2018-10-09T08:56:10.536Z,13.70
2018-10-09T08:58:40.178Z,13.80
2018-10-09T09:01:09.981Z,13.90
2018-10-09T09:03:39.661Z,13.90
2018-10-09T09:06:09.303Z,14.00
2018-10-09T09:08:38.928Z,13.90
2018-10-09T09:11:08.545Z,14.00
2018-10-09T09:13:38.206Z,14.00
2018-10-09T09:16:08.176Z,14.10
2018-10-09T09:18:37.824Z,14.10
2018-10-09T09:21:07.701Z,14.20
2018-10-09T09:23:37.451Z,14.20
2018-10-09T09:26:07.110Z,14.40
2018-10-09T09:28:36.803Z,14.40
2018-10-09T09:31:06.431Z,14.50
2018-10-09T09:33:36.051Z,14.50
2018-10-09T09:36:05.670Z,14.50
2018-10-09T09:38:35.333Z,14.50
2018-10-09T09:41:05.046Z,14.40
2018-10-09T09:43:34.677Z,14.50
2018-10-09T09:46:04.390Z,14.60
2018-10-09T09:48:34.001Z,14.80
2018-10-09T09:51:03.615Z,15.00
2018-10-09T09:53:33.235Z,15.20
2018-10-09T09:56:02.944Z,15.30
2018-10-09T09:58:32.774Z,15.40
2018-10-09T10:01:08.181Z,15.30
2018-10-09T10:03:38.805Z,15.40
2018-10-09T10:06:08.940Z,15.50
2018-10-09T10:08:39.077Z,15.40
2018-10-09T10:11:08.745Z,15.40
2018-10-09T10:13:38.404Z,15.30
2018-10-09T10:16:08.039Z,15.30
2018-10-09T10:18:37.690Z,15.30
2018-10-09T10:21:07.656Z,15.30
2018-10-09T10:23:37.267Z,15.30
2018-10-09T10:26:06.921Z,15.40
2018-10-09T10:28:36.649Z,15.40
2018-10-09T10:31:06.312Z,15.40
2018-10-09T10:33:35.927Z,15.30
2018-10-09T10:36:05.539Z,15.30
2018-10-09T10:38:35.278Z,15.40
2018-10-09T10:41:04.955Z,15.50
2018-10-09T10:43:34.595Z,15.60
2018-10-09T10:46:04.210Z,15.80
2018-10-09T10:48:33.829Z,15.90
2018-10-09T10:51:03.497Z,16.00
2018-10-09T10:53:33.114Z,16.00
2018-10-09T10:56:02.736Z,16.10
2018-10-09T10:58:32.321Z,16.10
2018-10-09T11:01:01.971Z,16.20
2018-10-09T11:03:31.611Z,16.30
2018-10-09T11:06:01.232Z,16.40
2018-10-09T11:08:30.935Z,16.60
2018-10-09T11:11:00.521Z,16.70
2018-10-09T11:13:30.146Z,16.90
2018-10-09T11:15:59.780Z,17.20
2018-10-09T11:18:29.442Z,17.40
2018-10-09T11:20:59.221Z,17.50
2018-10-09T11:23:28.899Z,17.50
2018-10-09T11:25:58.510Z,17.40
2018-10-09T11:28:28.480Z,17.50
2018-10-09T11:30:58.099Z,17.50
2018-10-09T11:33:27.743Z,17.60
2018-10-09T11:35:57.343Z,17.60
2018-10-09T11:38:26.964Z,17.70
2018-10-09T11:40:56.579Z,17.80
2018-10-09T11:43:26.264Z,17.90
2018-10-09T11:45:55.848Z,18.00
2018-10-09T11:48:25.470Z,18.10
2018-10-09T11:50:55.105Z,18.20
2018-10-09T11:53:24.726Z,18.30
2018-10-09T11:55:54.366Z,18.30
2018-10-09T11:58:24.021Z,18.60
2018-10-09T12:00:55.741Z,18.70
2018-10-09T12:03:25.381Z,18.90
2018-10-09T12:05:55.083Z,19.00
2018-10-09T12:08:24.710Z,19.30
2018-10-09T12:10:54.315Z,19.70
2018-10-09T12:13:23.940Z,21.20
2018-10-09T12:15:53.582Z,23.30
2018-10-09T12:18:23.203Z,25.20
2018-10-09T12:20:52.826Z,26.50
2018-10-09T12:23:22.433Z,27.80
2018-10-09T12:25:52.049Z,29.00
2018-10-09T12:28:21.708Z,30.50
2018-10-09T12:30:51.395Z,31.60
2018-10-09T12:33:21.063Z,32.70
2018-10-09T12:35:50.710Z,33.60
2018-10-09T12:38:20.385Z,34.00
2018-10-09T12:40:50.474Z,34.30
2018-10-09T12:43:20.117Z,34.70
2018-10-09T12:45:49.728Z,35.20
2018-10-09T12:48:19.330Z,35.50
2018-10-09T12:50:48.916Z,36.30
2018-10-09T12:53:18.595Z,36.90
2018-10-09T12:55:48.225Z,36.60
2018-10-09T12:58:17.862Z,36.20
2018-10-09T13:00:47.512Z,36.50
2018-10-09T13:03:17.130Z,36.70
2018-10-09T13:05:46.742Z,37.10
2018-10-09T13:08:16.374Z,37.80
2018-10-09T13:10:45.997Z,38.30
2018-10-09T13:13:16.108Z,38.50
2018-10-09T13:15:45.729Z,38.20
2018-10-09T13:18:15.353Z,38.00
2018-10-09T13:20:44.981Z,38.20
2018-10-09T13:23:14.595Z,38.50
2018-10-09T13:25:44.223Z,38.50
2018-10-09T13:28:13.820Z,38.40
2018-10-09T13:30:43.483Z,38.70
2018-10-09T13:33:13.092Z,38.90
2018-10-09T13:35:42.710Z,39.10
2018-10-09T13:38:12.418Z,38.20
2018-10-09T13:40:42.021Z,37.50
2018-10-09T13:43:11.615Z,37.30
2018-10-09T13:45:41.241Z,37.00
2018-10-09T13:48:11.171Z,37.00
2018-10-09T13:50:40.855Z,37.30
2018-10-09T13:53:10.510Z,36.90
2018-10-09T13:55:40.108Z,36.80
2018-10-09T13:58:09.700Z,36.90
2018-10-09T14:00:39.340Z,37.40
2018-10-09T14:03:09.024Z,37.70
2018-10-09T14:05:38.623Z,37.90
2018-10-09T14:08:08.293Z,37.80
2018-10-09T14:10:37.923Z,37.50
2018-10-09T14:13:07.576Z,37.40
2018-10-09T14:15:37.194Z,36.40
2018-10-09T14:18:06.892Z,34.90
2018-10-09T14:20:36.524Z,33.50
2018-10-09T14:23:06.604Z,31.80
2018-10-09T14:25:36.208Z,30.20
2018-10-09T14:28:06.168Z,29.50
2018-10-09T14:30:35.894Z,29.10
2018-10-09T14:33:05.562Z,29.10
2018-10-09T14:35:35.191Z,28.70
2018-10-09T14:38:04.889Z,28.10
2018-10-09T14:40:34.513Z,27.40
2018-10-09T14:43:04.181Z,26.60
2018-10-09T14:45:33.810Z,26.50
2018-10-09T14:48:03.470Z,26.60
2018-10-09T14:50:33.093Z,26.90
2018-10-09T14:53:02.700Z,26.90
2018-10-09T14:55:32.371Z,26.70
2018-10-09T14:58:02.032Z,26.20
2018-10-09T15:00:31.666Z,25.40
2018-10-09T15:03:01.277Z,24.60
2018-10-09T15:05:30.875Z,24.00
2018-10-09T15:08:00.531Z,23.60
2018-10-09T15:10:30.926Z,22.90
2018-10-09T15:13:00.737Z,22.30
2018-10-09T15:15:30.373Z,21.90
2018-10-09T15:18:00.011Z,21.30
2018-10-09T15:20:29.624Z,20.90
2018-10-09T15:22:59.314Z,20.50
2018-10-09T15:25:28.938Z,20.00
2018-10-09T15:27:59.467Z,19.50
2018-10-09T15:30:29.122Z,19.20
2018-10-09T15:32:58.758Z,18.80
2018-10-09T15:35:28.486Z,18.40
2018-10-09T15:37:58.058Z,18.00
2018-10-09T15:40:34.736Z,17.80
2018-10-09T15:43:04.498Z,17.50
2018-10-09T15:45:34.100Z,17.30
2018-10-09T15:48:03.797Z,17.10
2018-10-09T15:50:33.505Z,17.00
2018-10-09T15:53:03.263Z,16.80
2018-10-09T15:55:32.930Z,16.60
2018-10-09T15:58:02.585Z,16.40
2018-10-09T16:00:38.847Z,16.20
2018-10-09T16:03:09.098Z,15.90
2018-10-09T16:05:38.773Z,15.70
2018-10-09T16:08:08.385Z,15.60
2018-10-09T16:10:37.993Z,15.40
2018-10-09T16:13:07.672Z,15.30
2018-10-09T16:15:37.318Z,15.20
2018-10-09T16:18:06.957Z,15.00
2018-10-09T16:20:36.634Z,15.00
2018-10-09T16:23:06.374Z,14.80
2018-10-09T16:25:36.015Z,14.70
2018-10-09T16:28:05.692Z,14.60
2018-10-09T16:30:35.307Z,14.50
2018-10-09T16:33:05.013Z,14.40
2018-10-09T16:35:34.649Z,14.30
2018-10-09T16:38:04.286Z,14.20
2018-10-09T16:40:34.007Z,14.10
2018-10-09T16:43:03.645Z,14.10
2018-10-09T16:45:33.277Z,14.00
2018-10-09T16:48:02.912Z,13.90
2018-10-09T16:50:32.515Z,13.90
2018-10-09T16:53:02.217Z,13.80
2018-10-09T16:55:32.390Z,13.80
2018-10-09T16:58:02.526Z,13.70
2018-10-09T17:00:32.653Z,13.60
2018-10-09T17:06:06.350Z,13.40
2018-10-09T17:08:41.537Z,13.30
2018-10-09T17:11:19.743Z,13.20
2018-10-09T17:13:53.673Z,13.10
2018-10-09T17:16:36.728Z,13.00
2018-10-09T17:19:19.414Z,13.00
2018-10-09T17:22:00.444Z,13.00
2018-10-09T17:24:37.323Z,13.00
2018-10-09T17:27:19.157Z,13.00
2018-10-09T17:38:59.085Z,12.70
2018-10-09T17:41:33.509Z,12.60
2018-10-09T17:44:16.883Z,12.60
2018-10-09T17:46:46.777Z,12.50
2018-10-09T17:49:16.998Z,12.40
2018-10-09T17:51:46.794Z,12.40
2018-10-09T17:54:16.963Z,12.40
2018-10-09T17:56:46.721Z,12.30
2018-10-09T17:59:16.441Z,12.20
2018-10-09T18:01:46.097Z,12.20
2018-10-09T18:04:24.937Z,12.10
2018-10-09T18:06:57.330Z,12.10
2018-10-09T18:09:31.860Z,12.00
2018-10-09T18:12:12.580Z,12.00
2018-10-09T18:14:45.217Z,11.90
2018-10-09T18:17:17.565Z,11.90
2018-10-09T18:19:52.355Z,11.90
2018-10-09T18:42:55.381Z,11.80
2018-10-09T18:52:08.792Z,11.60
2018-10-09T18:54:38.416Z,11.60
2018-10-09T18:57:08.201Z,11.50
2018-10-09T18:59:37.808Z,11.50
2018-10-09T19:02:07.036Z,11.50
2018-10-09T19:04:36.683Z,11.40
2018-10-09T19:07:06.344Z,11.30
2018-10-09T19:09:35.952Z,11.30
2018-10-09T19:12:05.564Z,11.30
2018-10-09T19:14:35.223Z,11.20
2018-10-09T19:17:04.866Z,11.20
2018-10-09T19:19:34.746Z,11.10
2018-10-09T19:22:04.420Z,11.10
2018-10-09T19:24:34.049Z,11.10
2018-10-09T19:27:03.740Z,11.00
2018-10-09T19:29:33.355Z,11.00
2018-10-09T19:32:02.988Z,11.00
2018-10-09T19:34:32.627Z,11.00
2018-10-09T19:37:02.636Z,11.00
2018-10-09T19:39:32.279Z,11.00
2018-10-09T19:42:01.917Z,11.00
2018-10-09T19:44:31.562Z,10.90
2018-10-09T19:47:01.267Z,10.90
2018-10-09T19:49:30.886Z,11.00
2018-10-09T19:52:00.612Z,11.00
2018-10-09T19:54:30.240Z,11.00
2018-10-09T19:56:59.881Z,10.90
2018-10-09T19:59:29.503Z,10.90
2018-10-09T20:01:59.178Z,10.90
2018-10-09T20:04:28.808Z,10.80
2018-10-09T20:06:58.460Z,10.80
2018-10-09T20:09:28.098Z,10.70
2018-10-09T20:11:57.743Z,10.70
2018-10-09T20:14:27.432Z,10.70
2018-10-09T20:16:57.075Z,10.60
2018-10-09T20:19:26.718Z,10.60
2018-10-09T20:21:56.358Z,10.50
2018-10-09T20:24:26.025Z,10.50
2018-10-09T20:26:55.663Z,10.50
2018-10-09T20:29:25.310Z,10.50
2018-10-09T20:31:55.011Z,10.50
2018-10-09T20:34:24.617Z,10.50
2018-10-09T20:36:54.236Z,10.50
2018-10-09T20:39:23.868Z,10.50
2018-10-09T20:41:53.508Z,10.60
2018-10-09T20:44:23.159Z,10.50
2018-10-09T20:46:52.780Z,10.50
2018-10-09T20:49:22.431Z,10.50
2018-10-09T20:51:52.192Z,10.40
2018-10-09T20:54:21.826Z,10.30
2018-10-09T20:56:51.451Z,10.30
2018-10-09T20:59:21.067Z,10.20
2018-10-09T21:01:50.732Z,10.10
2018-10-09T21:04:20.328Z,10.00
2018-10-09T21:06:49.931Z,9.90
2018-10-09T21:09:19.553Z,9.90
2018-10-09T21:11:49.530Z,9.90
2018-10-09T21:14:19.130Z,9.90
2018-10-09T21:16:48.763Z,9.80
2018-10-09T21:19:18.415Z,9.80
2018-10-09T21:21:48.077Z,9.80
2018-10-09T21:24:17.695Z,9.80
2018-10-09T21:26:47.346Z,9.70
2018-10-09T21:29:16.953Z,9.80
2018-10-09T21:31:46.596Z,9.80
2018-10-09T21:34:16.212Z,9.80
2018-10-09T21:36:45.849Z,9.80
2018-10-09T21:39:15.494Z,9.80
2018-10-09T21:41:45.106Z,9.70
2018-10-09T21:44:14.716Z,9.60
2018-10-09T21:46:44.359Z,9.60
2018-10-09T21:49:13.973Z,9.60
2018-10-09T21:51:43.617Z,9.60
2018-10-09T21:54:13.236Z,9.50
2018-10-09T21:56:42.839Z,9.50
2018-10-09T21:59:12.442Z,9.50
2018-10-09T22:01:42.072Z,9.40
2018-10-09T22:04:11.688Z,9.40
2018-10-09T22:06:41.306Z,9.40
2018-10-09T22:09:10.928Z,9.40
2018-10-09T22:11:40.548Z,9.40
2018-10-09T22:14:10.156Z,9.30
2018-10-09T22:16:39.767Z,9.30
2018-10-09T22:19:09.393Z,9.30
2018-10-09T22:21:39.001Z,9.20
2018-10-09T22:24:08.709Z,9.20
2018-10-09T22:26:38.343Z,9.10
2018-10-09T22:29:07.952Z,9.10
2018-10-09T22:31:37.566Z,9.10
2018-10-09T22:34:07.372Z,9.00
2018-10-09T22:36:37.033Z,9.00
2018-10-09T22:39:08.286Z,9.00
2018-10-09T22:41:38.043Z,8.90
2018-10-09T22:44:08.041Z,8.90
2018-10-09T22:46:37.664Z,8.90
2018-10-09T22:49:07.324Z,8.80
2018-10-09T22:51:36.932Z,8.80
2018-10-09T22:54:06.592Z,8.80
2018-10-09T22:56:36.204Z,8.80
2018-10-09T22:59:05.827Z,8.80
2018-10-09T23:01:35.457Z,8.70
2018-10-09T23:04:05.091Z,8.70
2018-10-09T23:06:34.705Z,8.70
2018-10-09T23:09:05.323Z,8.60
2018-10-09T23:11:34.946Z,8.60
2018-10-09T23:14:04.553Z,8.60
2018-10-09T23:16:34.197Z,8.60
2018-10-09T23:19:03.886Z,8.60
2018-10-09T23:21:33.488Z,8.60
2018-10-09T23:24:03.128Z,8.60
2018-10-09T23:26:32.799Z,8.60
2018-10-09T23:29:02.425Z,8.50
2018-10-09T23:31:32.078Z,8.50
2018-10-09T23:34:01.700Z,8.50
2018-10-09T23:36:31.327Z,8.40
2018-10-09T23:39:00.986Z,8.40
2018-10-09T23:41:30.604Z,8.40
2018-10-09T23:44:00.249Z,8.40
2018-10-09T23:46:29.854Z,8.40
2018-10-09T23:48:59.452Z,8.30
2018-10-09T23:51:29.110Z,8.30
2018-10-09T23:53:58.743Z,8.30
2018-10-09T23:56:28.343Z,8.20
2018-10-09T23:58:58.029Z,8.20
